Celestial — WDE5068 — position and weather

sailwx.info

Track history (hours):
 
Tides and Currents Weather Stations Pressure Air Temp Water Temp Dewpoint Dewpoint Depression Visibility Wind Speed Wind Dir Waves Ship Positions

Celestial

Owner: Entertainment Cruises, New York, NY. More information available from US FCC via Universal Licensing System and Coast Guard Vessel Documentation Center.

Last reported at 2017-Dec-15 02:30 UTC. Time now 2017-Dec-15 12:12 UTC.
Position N 40°44' W 074°01'.

Length 66 m; draft 3.1 m.

Type: Passenger vessel. MMSI: 367361620.

Date/timePositionNaut miles runAvg speedWind from/ knotsBaromVisibWave heightAir tempDewpointWater temp
2017-Dec-15 02:30N 40°44' W 074°01'2 1.1
2017-Dec-15 01:00N 40°42' W 074°01'3 6.3
2017-Dec-15 00:31N 40°45' W 074°01'0 0.0
2017-Dec-14 02:45N 40°45' W 074°01'1 5.0
2017-Dec-14 02:30N 40°44' W 074°01'3 5.0
2017-Dec-14 02:00N 40°41' W 074°03'3 5.4
2017-Dec-14 01:30N 40°42' W 073°59'1 2.9
2017-Dec-14 01:00N 40°42' W 074°01'3 6.2
2017-Dec-14 00:30N 40°45' W 074°01'0 0.4
2017-Dec-14 00:00N 40°45' W 074°01'0 0.0
2017-Dec-13 02:47N 40°45' W 074°01'1 5.3
2017-Dec-13 02:30N 40°43' W 074°01'2 4.6
2017-Dec-13 02:00N 40°41' W 074°03'3 5.7
2017-Dec-13 01:30N 40°42' W 073°59'2 3.2
2017-Dec-13 01:00N 40°42' W 074°01'3 6.8
2017-Dec-13 00:30N 40°45' W 074°01'0 0.6
2017-Dec-13 00:00N 40°45' W 074°01'0 0.0
2017-Dec-11 02:46N 40°45' W 074°01'1 5.7
2017-Dec-11 02:30N 40°43' W 074°01'2 4.1
2017-Dec-11 02:00N 40°41' W 074°02'3 5.9
2017-Dec-11 01:30N 40°43' W 073°59'2 3.6
2017-Dec-11 01:00N 40°42' W 074°01'3 6.9
2017-Dec-11 00:30N 40°46' W 074°01'1 1.4
2017-Dec-11 00:00N 40°45' W 074°01'0 0.0
2017-Dec-10 23:30N 40°45' W 074°01'0 0.0
2017-Dec-10 23:00N 40°45' W 074°01'0 0.0
2017-Dec-10 22:00N 40°45' W 074°01'0 0.0
2017-Dec-10 21:30N 40°45' W 074°01'0 0.0
2017-Dec-10 21:00N 40°45' W 074°01'0 0.0
2017-Dec-10 20:30N 40°45' W 074°01'0 0.0
2017-Dec-10 20:00N 40°45' W 074°01'0 0.0
2017-Dec-10 19:29N 40°45' W 074°01'0 0.0
2017-Dec-10 19:00N 40°45' W 074°01'1 3.0
2017-Dec-10 18:30N 40°43' W 074°01'2 4.0
2017-Dec-10 18:00N 40°42' W 074°02'1 1.9
2017-Dec-10 17:30N 40°42' W 074°01'3 5.6
2017-Dec-10 17:00N 40°45' W 074°01'0 0.0
2017-Dec-10 02:54N 40°45' W 074°01'1 3.8
2017-Dec-10 02:30N 40°43' W 074°01'2 4.9
2017-Dec-10 02:00N 40°41' W 074°02'3 6.1
2017-Dec-10 01:30N 40°43' W 073°59'2 3.6
2017-Dec-10 01:00N 40°42' W 074°01'3 6.8
2017-Dec-10 00:30N 40°45' W 074°01'0 0.8
2017-Dec-10 00:00N 40°45' W 074°01'0 0.0
2017-Dec-09 02:54N 40°45' W 074°01'1 3.6
2017-Dec-09 02:31N 40°43' W 074°01'3 5.1
2017-Dec-09 02:00N 40°41' W 074°03'2 4.6
2017-Dec-09 01:31N 40°42' W 073°60'1 1.5
2017-Dec-09 01:00N 40°42' W 074°01'4 7.7
2017-Dec-09 00:30N 40°46' W 074°01'1 0.0
2017-Dec-08 02:54N 40°45' W 074°01'1 3.5
2017-Dec-08 02:30N 40°44' W 074°01'3 5.1
2017-Dec-08 02:00N 40°41' W 074°02'2 3.6
2017-Dec-08 01:30N 40°42' W 074°00'0 0.6
2017-Dec-08 01:00N 40°42' W 074°00'3 6.6
2017-Dec-08 00:30N 40°45' W 074°01'1 0.0
2017-Dec-07 02:52N 40°45' W 074°01'1 4.0
2017-Dec-07 02:30N 40°43' W 074°01'2 4.8
2017-Dec-07 02:00N 40°41' W 074°02'2 3.9
2017-Dec-07 01:30N 40°42' W 074°00'0 0.6
2017-Dec-07 01:00N 40°42' W 073°60'3 6.3
2017-Dec-07 00:30N 40°45' W 074°01'0 1.0
2017-Dec-07 00:00N 40°45' W 074°01'  
Track history (hours):
 
Tides and Currents Weather Stations Pressure Air Temp Water Temp Dewpoint Dewpoint Depression Visibility Wind Speed Wind Dir Waves Ship Positions

Celestial

Owner: Entertainment Cruises, New York, NY. More information available from US FCC via Universal Licensing System and Coast Guard Vessel Documentation Center.

Last reported at 2017-Dec-15 02:30 UTC. Time now 2017-Dec-15 12:12 UTC.
Position N 40°44' W 074°01'.

Length 66 m; draft 3.1 m.

Type: Passenger vessel. MMSI: 367361620.

Date/timePositionNaut miles runAvg speedWind from/ knotsBaromVisibWave heightAir tempDewpointWater temp
2017-Dec-15 02:30N 40°44' W 074°01'2 1.1
2017-Dec-15 01:00N 40°42' W 074°01'3 6.3
2017-Dec-15 00:31N 40°45' W 074°01'0 0.0
2017-Dec-14 02:45N 40°45' W 074°01'1 5.0
2017-Dec-14 02:30N 40°44' W 074°01'3 5.0
2017-Dec-14 02:00N 40°41' W 074°03'3 5.4
2017-Dec-14 01:30N 40°42' W 073°59'1 2.9
2017-Dec-14 01:00N 40°42' W 074°01'3 6.2
2017-Dec-14 00:30N 40°45' W 074°01'0 0.4
2017-Dec-14 00:00N 40°45' W 074°01'0 0.0
2017-Dec-13 02:47N 40°45' W 074°01'1 5.3
2017-Dec-13 02:30N 40°43' W 074°01'2 4.6
2017-Dec-13 02:00N 40°41' W 074°03'3 5.7
2017-Dec-13 01:30N 40°42' W 073°59'2 3.2
2017-Dec-13 01:00N 40°42' W 074°01'3 6.8
2017-Dec-13 00:30N 40°45' W 074°01'0 0.6
2017-Dec-13 00:00N 40°45' W 074°01'0 0.0
2017-Dec-11 02:46N 40°45' W 074°01'1 5.7
2017-Dec-11 02:30N 40°43' W 074°01'2 4.1
2017-Dec-11 02:00N 40°41' W 074°02'3 5.9
2017-Dec-11 01:30N 40°43' W 073°59'2 3.6
2017-Dec-11 01:00N 40°42' W 074°01'3 6.9
2017-Dec-11 00:30N 40°46' W 074°01'1 1.4
2017-Dec-11 00:00N 40°45' W 074°01'0 0.0
2017-Dec-10 23:30N 40°45' W 074°01'0 0.0
2017-Dec-10 23:00N 40°45' W 074°01'0 0.0
2017-Dec-10 22:00N 40°45' W 074°01'0 0.0
2017-Dec-10 21:30N 40°45' W 074°01'0 0.0
2017-Dec-10 21:00N 40°45' W 074°01'0 0.0
2017-Dec-10 20:30N 40°45' W 074°01'0 0.0
2017-Dec-10 20:00N 40°45' W 074°01'0 0.0
2017-Dec-10 19:29N 40°45' W 074°01'0 0.0
2017-Dec-10 19:00N 40°45' W 074°01'1 3.0
2017-Dec-10 18:30N 40°43' W 074°01'2 4.0
2017-Dec-10 18:00N 40°42' W 074°02'1 1.9
2017-Dec-10 17:30N 40°42' W 074°01'3 5.6
2017-Dec-10 17:00N 40°45' W 074°01'0 0.0
2017-Dec-10 02:54N 40°45' W 074°01'1 3.8
2017-Dec-10 02:30N 40°43' W 074°01'2 4.9
2017-Dec-10 02:00N 40°41' W 074°02'3 6.1
2017-Dec-10 01:30N 40°43' W 073°59'2 3.6
2017-Dec-10 01:00N 40°42' W 074°01'3 6.8
2017-Dec-10 00:30N 40°45' W 074°01'0 0.8
2017-Dec-10 00:00N 40°45' W 074°01'0 0.0
2017-Dec-09 02:54N 40°45' W 074°01'1 3.6
2017-Dec-09 02:31N 40°43' W 074°01'3 5.1
2017-Dec-09 02:00N 40°41' W 074°03'2 4.6
2017-Dec-09 01:31N 40°42' W 073°60'1 1.5
2017-Dec-09 01:00N 40°42' W 074°01'4 7.7
2017-Dec-09 00:30N 40°46' W 074°01'1 0.0
2017-Dec-08 02:54N 40°45' W 074°01'1 3.5
2017-Dec-08 02:30N 40°44' W 074°01'3 5.1
2017-Dec-08 02:00N 40°41' W 074°02'2 3.6
2017-Dec-08 01:30N 40°42' W 074°00'0 0.6
2017-Dec-08 01:00N 40°42' W 074°00'3 6.6
2017-Dec-08 00:30N 40°45' W 074°01'1 0.0
2017-Dec-07 02:52N 40°45' W 074°01'1 4.0
2017-Dec-07 02:30N 40°43' W 074°01'2 4.8
2017-Dec-07 02:00N 40°41' W 074°02'2 3.9
2017-Dec-07 01:30N 40°42' W 074°00'0 0.6
2017-Dec-07 01:00N 40°42' W 073°60'3 6.3
2017-Dec-07 00:30N 40°45' W 074°01'0 1.0
2017-Dec-07 00:00N 40°45' W 074°01'  

Dump ship's entire track history